Time;durP1;ratioP1;P1;durP2;ratioP2;P2;SDS_P1;SDS_P2;PMS_P1;PMS_P2;Temp;Humidity;BMP_temperature;BMP_pressure;BME280_temperature;BME280_humidity;BME280_pressure;Samples;Min_cycle;Max_cycle;Signal;HPM_P1;HPM_P2
2023/03/10 00:01:31;;;;;;;45.95;21.23;;;0.90;99.90;;;;;;5072882;28;20037;-72
2023/03/10 00:03:58;;;;;;;47.80;21.60;;;1.00;99.90;;;;;;5063389;28;20047;-72
2023/03/10 00:06:27;;;;;;;51.45;22.90;;;0.90;99.90;;;;;;5063741;28;20048;-73
2023/03/10 00:08:53;;;;;;;51.95;22.17;;;0.90;99.90;;;;;;5064353;28;20055;-72
2023/03/10 00:11:18;;;;;;;45.80;21.70;;;0.90;99.90;;;;;;5062670;28;20041;-72
2023/03/10 00:13:44;;;;;;;49.20;22.58;;;0.90;99.90;;;;;;5074230;28;20041;-72
2023/03/10 00:16:17;;;;;;;44.97;21.88;;;0.90;99.90;;;;;;5071201;28;20042;-72
2023/03/10 00:18:44;;;;;;;44.42;21.25;;;0.90;99.90;;;;;;5072060;28;20052;-72
2023/03/10 00:21:15;;;;;;;45.47;21.67;;;0.90;99.90;;;;;;5072035;28;20041;-72
2023/03/10 00:23:40;;;;;;;45.85;21.10;;;0.90;99.90;;;;;;5040870;28;20062;-72
2023/03/10 00:26:06;;;;;;;46.83;21.80;;;0.90;99.90;;;;;;5072863;28;20043;-72
2023/03/10 00:28:32;;;;;;;46.65;22.52;;;0.90;99.90;;;;;;5073588;28;20110;-73
2023/03/10 00:31:03;;;;;;;46.15;22.77;;;0.80;99.90;;;;;;5074557;28;20079;-73
2023/03/10 00:33:31;;;;;;;45.15;22.08;;;0.80;99.90;;;;;;5075238;28;20491;-72
2023/03/10 00:36:15;;;;;;;46.53;22.92;;;0.80;99.90;;;;;;5070632;28;20072;-73
2023/03/10 00:38:43;;;;;;;53.58;24.17;;;0.90;99.90;;;;;;5073196;28;20432;-73
2023/03/10 00:41:15;;;;;;;51.10;24.08;;;0.80;99.90;;;;;;5074035;28;20040;-73
2023/03/10 00:43:41;;;;;;;56.17;25.20;;;0.80;99.90;;;;;;5060974;28;20067;-73
2023/03/10 00:46:07;;;;;;;55.08;26.58;;;0.80;99.90;;;;;;5073998;28;20036;-73
2023/03/10 00:48:33;;;;;;;56.03;26.15;;;0.80;99.90;;;;;;5066027;28;20094;-72
2023/03/10 00:50:58;;;;;;;53.25;24.15;;;0.80;99.90;;;;;;5072262;28;20127;-72
2023/03/10 00:53:25;;;;;;;54.30;24.58;;;0.90;99.90;;;;;;5072517;28;20102;-73
2023/03/10 00:55:59;;;;;;;43.30;21.40;;;0.90;99.90;;;;;;5073499;28;20040;-73
2023/03/10 00:58:24;;;;;;;42.90;20.00;;;0.90;99.90;;;;;;5062787;28;20036;-73
2023/03/10 01:00:50;;;;;;;35.53;18.67;;;0.90;99.90;;;;;;5074536;28;20124;-72
2023/03/10 01:03:15;;;;;;;33.30;16.50;;;0.90;99.90;;;;;;5072523;28;20048;-72
2023/03/10 01:05:41;;;;;;;33.53;16.73;;;0.90;99.90;;;;;;5054948;28;20053;-73
2023/03/10 01:08:07;;;;;;;30.88;16.33;;;0.90;99.90;;;;;;5058735;28;20037;-72
2023/03/10 01:10:32;;;;;;;28.73;15.23;;;0.90;99.90;;;;;;5064881;28;20044;-72
2023/03/10 01:12:58;;;;;;;28.52;14.63;;;0.90;99.90;;;;;;5073272;28;20150;-72
2023/03/10 01:15:23;;;;;;;26.60;14.15;;;0.90;99.90;;;;;;5068408;28;20429;-72
2023/03/10 01:17:49;;;;;;;29.65;14.55;;;0.90;99.90;;;;;;5071638;28;20044;-72
2023/03/10 01:20:15;;;;;;;27.70;13.95;;;0.90;99.90;;;;;;5062904;28;20039;-72
2023/03/10 01:22:42;;;;;;;26.40;13.48;;;1.10;99.90;;;;;;5072070;28;20053;-72
2023/03/10 01:25:14;;;;;;;28.67;13.73;;;0.90;99.90;;;;;;5068855;28;20071;-71
2023/03/10 01:27:42;;;;;;;26.45;13.18;;;1.00;99.90;;;;;;5056257;28;20049;-72
2023/03/10 01:30:09;;;;;;;26.45;14.30;;;0.90;99.90;;;;;;5053657;28;20090;-71
2023/03/10 01:32:35;;;;;;;26.33;13.63;;;1.00;99.90;;;;;;5072488;28;20074;-71
2023/03/10 01:35:01;;;;;;;27.83;13.80;;;1.00;99.90;;;;;;5067478;28;20048;-71
2023/03/10 01:37:27;;;;;;;25.38;13.20;;;1.00;99.90;;;;;;5073619;28;20159;-71
2023/03/10 01:39:53;;;;;;;25.92;14.10;;;1.00;99.90;;;;;;5073234;28;20115;-71
2023/03/10 01:42:18;;;;;;;27.08;13.35;;;1.00;99.90;;;;;;5057679;28;20383;-71
2023/03/10 01:45:04;;;;;;;24.60;13.77;;;1.10;99.90;;;;;;5062316;28;20078;-72
2023/03/10 01:47:29;;;;;;;27.30;12.98;;;1.00;99.90;;;;;;5071006;28;20059;-72
2023/03/10 01:49:55;;;;;;;26.88;14.68;;;2.10;99.90;;;;;;5067661;28;20120;-72
2023/03/10 01:52:24;;;;;;;26.25;13.32;;;1.20;99.90;;;;;;5071035;28;20429;-72
2023/03/10 01:54:59;;;;;;;28.10;14.95;;;1.70;99.90;;;;;;5057892;28;20048;-73
2023/03/10 01:57:32;;;;;;;28.92;14.10;;;1.10;99.90;;;;;;5068561;28;20079;-73
2023/03/10 01:59:59;;;;;;;27.45;15.27;;;1.10;99.90;;;;;;5070583;28;20136;-71
2023/03/10 02:02:25;;;;;;;28.20;15.02;;;1.10;99.90;;;;;;5075518;28;20151;-71
2023/03/10 02:04:52;;;;;;;29.00;15.38;;;1.10;99.90;;;;;;5076400;28;20052;-71
2023/03/10 02:07:22;;;;;;;31.92;17.48;;;1.20;99.90;;;;;;5075157;28;20052;-71
2023/03/10 02:09:50;;;;;;;30.05;16.52;;;1.10;99.90;;;;;;5075167;28;20053;-71
2023/03/10 02:12:16;;;;;;;25.33;13.95;;;1.20;99.90;;;;;;5076111;28;20093;-71
2023/03/10 02:14:46;;;;;;;29.25;14.65;;;1.20;99.90;;;;;;5074709;28;20384;-72
2023/03/10 02:17:18;;;;;;;27.30;14.27;;;1.20;99.90;;;;;;5074104;28;20115;-71
2023/03/10 02:20:03;;;;;;;25.27;14.48;;;1.20;99.90;;;;;;5061377;28;20074;-71
2023/03/10 02:22:30;;;;;;;28.05;14.88;;;1.20;99.90;;;;;;5073332;28;20045;-71
2023/03/10 02:25:08;;;;;;;25.80;13.40;;;1.20;99.90;;;;;;5075269;28;20045;-72
2023/03/10 02:27:35;;;;;;;29.67;14.93;;;1.20;99.90;;;;;;5062172;28;20084;-71
2023/03/10 02:30:22;;;;;;;29.70;14.98;;;1.20;99.90;;;;;;5068112;28;20041;-72
2023/03/10 02:32:52;;;;;;;28.65;15.32;;;1.20;99.90;;;;;;5072215;28;20097;-71
2023/03/10 02:35:18;;;;;;;31.30;14.90;;;1.10;99.90;;;;;;5072368;28;20037;-71
2023/03/10 02:37:43;;;;;;;26.73;14.35;;;1.10;99.90;;;;;;5073060;28;20351;-72
2023/03/10 02:40:36;;;;;;;30.77;14.80;;;1.10;99.90;;;;;;5074741;28;20056;-72
2023/03/10 02:43:28;;;;;;;28.20;14.25;;;1.10;99.90;;;;;;5062603;28;20494;-72
2023/03/10 02:46:00;;;;;;;29.80;15.27;;;1.00;99.90;;;;;;5069958;28;20135;-72
2023/03/10 02:48:30;;;;;;;31.38;16.52;;;1.00;99.90;;;;;;5075950;28;20075;-72
2023/03/10 02:50:57;;;;;;;29.63;14.40;;;1.00;99.90;;;;;;5069127;28;20813;-72
2023/03/10 02:53:26;;;;;;;29.15;15.43;;;1.00;99.90;;;;;;5070701;28;20045;-72
2023/03/10 02:55:53;;;;;;;31.85;17.02;;;1.00;99.90;;;;;;5069236;28;20043;-72
2023/03/10 02:58:19;;;;;;;30.95;16.20;;;1.00;99.90;;;;;;5071769;28;20045;-72
2023/03/10 03:00:46;;;;;;;30.55;15.98;;;1.00;99.90;;;;;;5073971;28;20044;-72
2023/03/10 03:03:14;;;;;;;33.22;16.48;;;1.00;99.90;;;;;;5069869;28;20450;-72
2023/03/10 03:05:40;;;;;;;33.17;16.10;;;0.90;99.90;;;;;;5071589;28;20040;-72
2023/03/10 03:08:06;;;;;;;32.17;16.05;;;1.00;99.90;;;;;;5073143;28;20052;-70
2023/03/10 03:10:33;;;;;;;32.78;17.33;;;0.90;99.90;;;;;;5074460;28;20081;-71
2023/03/10 03:12:59;;;;;;;33.92;17.50;;;0.90;99.90;;;;;;5071920;28;20047;-71
2023/03/10 03:15:25;;;;;;;33.35;17.48;;;0.90;99.90;;;;;;5067783;28;20047;-71
2023/03/10 03:17:53;;;;;;;34.83;18.25;;;0.90;99.90;;;;;;5075489;28;20041;-72
2023/03/10 03:20:20;;;;;;;38.70;18.43;;;0.90;99.90;;;;;;5074845;28;20060;-72
2023/03/10 03:22:46;;;;;;;38.20;17.90;;;0.80;99.90;;;;;;5064685;28;20307;-72
2023/03/10 03:25:15;;;;;;;43.13;20.45;;;0.90;99.90;;;;;;5071022;28;20050;-72
2023/03/10 03:27:41;;;;;;;42.10;19.73;;;0.80;99.90;;;;;;5071289;28;20053;-71
2023/03/10 03:30:13;;;;;;;41.70;20.63;;;0.80;99.90;;;;;;5059890;28;20490;-71
2023/03/10 03:32:39;;;;;;;43.85;20.75;;;0.80;99.90;;;;;;5074111;28;20446;-72
2023/03/10 03:35:11;;;;;;;38.97;18.15;;;0.80;99.90;;;;;;5073572;28;20120;-71
2023/03/10 03:37:37;;;;;;;40.63;20.58;;;0.80;99.90;;;;;;5073570;28;20049;-71
2023/03/10 03:40:11;;;;;;;40.55;20.67;;;0.80;99.90;;;;;;5075299;28;20048;-72
2023/03/10 03:42:47;;;;;;;46.42;20.73;;;0.80;99.90;;;;;;5062794;28;20068;-71
2023/03/10 03:45:16;;;;;;;42.85;21.85;;;0.80;99.90;;;;;;5065037;28;20064;-71
2023/03/10 03:47:41;;;;;;;;;;;0.80;99.90;;;;;;5074790;28;20055;-71
2023/03/10 03:50:09;;;;;;;42.53;19.17;;;0.90;99.90;;;;;;5073570;28;19921;-73
2023/03/10 03:52:34;;;;;;;42.35;20.65;;;0.90;99.90;;;;;;5070165;28;20044;-72
2023/03/10 03:55:00;;;;;;;41.50;20.67;;;1.70;99.90;;;;;;5073514;28;20136;-72
2023/03/10 03:57:26;;;;;;;40.33;19.77;;;0.90;99.90;;;;;;5071608;28;20036;-72
2023/03/10 03:59:52;;;;;;;41.40;19.20;;;0.90;99.90;;;;;;5074088;28;20493;-72
2023/03/10 04:02:17;;;;;;;40.10;19.52;;;0.90;99.90;;;;;;5073086;28;20059;-72
2023/03/10 04:04:43;;;;;;;42.90;21.33;;;0.90;99.90;;;;;;5068635;28;20056;-72
2023/03/10 04:07:08;;;;;;;40.15;19.25;;;0.90;99.90;;;;;;5072702;28;20047;-72
2023/03/10 04:09:34;;;;;;;40.83;22.05;;;0.90;99.90;;;;;;5071193;28;20046;-71
2023/03/10 04:12:00;;;;;;;38.40;18.42;;;0.90;99.90;;;;;;5058849;28;20324;-72
2023/03/10 04:14:25;;;;;;;44.70;20.88;;;0.90;99.90;;;;;;5067653;28;20045;-73
2023/03/10 04:16:51;;;;;;;42.67;21.42;;;0.90;99.90;;;;;;5070743;28;20099;-72
2023/03/10 04:19:16;;;;;;;41.78;18.67;;;1.00;99.90;;;;;;5068466;28;20032;-72
2023/03/10 04:21:42;;;;;;;38.92;19.08;;;0.90;99.90;;;;;;5069163;28;20398;-72
2023/03/10 04:24:08;;;;;;;41.13;21.25;;;0.90;99.90;;;;;;5070785;28;20083;-72
2023/03/10 04:26:33;;;;;;;41.05;19.77;;;0.90;99.90;;;;;;5071869;28;20032;-71
2023/03/10 04:28:59;;;;;;;41.22;20.20;;;0.90;99.90;;;;;;5069062;28;20040;-71
2023/03/10 04:31:26;;;;;;;40.38;19.90;;;0.90;99.90;;;;;;5070916;28;20075;-71
2023/03/10 04:33:52;;;;;;;39.75;20.55;;;0.90;99.90;;;;;;5064123;28;20056;-71
2023/03/10 04:36:18;;;;;;;44.45;21.35;;;0.90;99.90;;;;;;5070159;28;20036;-71
2023/03/10 04:38:44;;;;;;;44.20;21.02;;;0.90;99.90;;;;;;5071395;28;20090;-71
2023/03/10 04:41:11;;;;;;;47.35;21.10;;;0.80;99.90;;;;;;5071647;28;20040;-71
2023/03/10 04:43:37;;;;;;;48.03;21.95;;;0.80;99.90;;;;;;5071292;28;20041;-71
2023/03/10 04:46:04;;;;;;;52.13;22.60;;;0.80;99.90;;;;;;5070241;28;20072;-72
2023/03/10 04:48:30;;;;;;;54.30;24.13;;;0.80;99.90;;;;;;5072429;28;20374;-71
2023/03/10 04:50:57;;;;;;;49.72;21.65;;;0.80;99.90;;;;;;5070085;28;20086;-72
2023/03/10 04:53:23;;;;;;;64.00;29.05;;;0.80;99.90;;;;;;5070153;28;20106;-71
2023/03/10 04:55:50;;;;;;;64.60;27.15;;;0.80;99.90;;;;;;5072139;28;20040;-71
2023/03/10 04:58:17;;;;;;;60.45;27.75;;;0.70;99.90;;;;;;5070124;28;20074;-71
2023/03/10 05:00:43;;;;;;;72.55;29.23;;;0.70;99.90;;;;;;5063493;28;20076;-71
2023/03/10 05:03:09;;;;;;;80.43;31.55;;;0.70;99.90;;;;;;5070593;28;20065;-71
2023/03/10 05:05:35;;;;;;;81.00;30.90;;;0.70;99.90;;;;;;5058691;28;20447;-71
2023/03/10 05:08:01;;;;;;;85.05;33.53;;;0.70;99.90;;;;;;5065977;28;20036;-71
2023/03/10 05:10:26;;;;;;;82.60;33.38;;;0.70;99.90;;;;;;5070088;28;20385;-71
2023/03/10 05:12:52;;;;;;;80.43;32.60;;;0.60;99.90;;;;;;5072029;28;20037;-71
2023/03/10 05:15:17;;;;;;;89.20;34.92;;;0.60;99.90;;;;;;5072349;28;20385;-71
2023/03/10 05:17:43;;;;;;;98.65;35.95;;;0.60;99.90;;;;;;5071656;28;20097;-72
2023/03/10 05:20:10;;;;;;;72.25;28.73;;;0.60;99.90;;;;;;5073076;28;20040;-72
2023/03/10 05:22:37;;;;;;;91.10;35.03;;;0.70;99.90;;;;;;5072856;28;20072;-72
2023/03/10 05:25:03;;;;;;;97.25;35.97;;;0.60;99.90;;;;;;5070733;28;20467;-72
2023/03/10 05:27:31;;;;;;;93.53;34.85;;;0.60;99.90;;;;;;5068451;28;20047;-72
2023/03/10 05:29:57;;;;;;;84.35;34.75;;;0.60;99.90;;;;;;5072884;28;20083;-71
2023/03/10 05:32:22;;;;;;;89.10;37.35;;;0.60;99.90;;;;;;5070758;28;20072;-72
2023/03/10 05:34:48;;;;;;;91.88;34.97;;;0.50;99.90;;;;;;5070597;28;20044;-71
2023/03/10 05:37:14;;;;;;;87.20;33.28;;;0.50;99.90;;;;;;5065670;28;20033;-71
2023/03/10 05:39:39;;;;;;;91.05;33.67;;;0.50;99.90;;;;;;5053622;28;20044;-71
2023/03/10 05:42:05;;;;;;;86.25;31.45;;;0.50;99.90;;;;;;5070043;28;20036;-71
2023/03/10 05:44:31;;;;;;;79.72;29.60;;;0.50;99.90;;;;;;5072375;28;20516;-71
2023/03/10 05:46:56;;;;;;;81.13;31.52;;;0.50;99.90;;;;;;5073869;28;20048;-71
2023/03/10 05:49:22;;;;;;;83.15;34.65;;;0.50;99.90;;;;;;5054812;28;20060;-70
2023/03/10 05:51:47;;;;;;;77.15;31.02;;;0.50;99.90;;;;;;5061658;28;20057;-71
2023/03/10 05:54:13;;;;;;;76.63;28.40;;;0.50;99.90;;;;;;5048681;28;20462;-71
2023/03/10 05:56:39;;;;;;;78.55;28.45;;;0.50;99.90;;;;;;5071657;28;20132;-71
2023/03/10 05:59:05;;;;;;;77.63;31.10;;;0.50;99.90;;;;;;5067429;28;20032;-71
2023/03/10 06:01:31;;;;;;;75.10;27.88;;;0.50;99.90;;;;;;5062390;28;20041;-72
2023/03/10 06:03:57;;;;;;;68.00;25.20;;;0.40;99.90;;;;;;5069468;28;20041;-72
2023/03/10 06:06:23;;;;;;;74.90;26.55;;;0.40;99.90;;;;;;5069311;28;20378;-71
2023/03/10 06:08:48;;;;;;;73.88;26.10;;;0.50;99.90;;;;;;5070742;28;20033;-71
2023/03/10 06:11:14;;;;;;;70.32;28.38;;;0.40;99.90;;;;;;5069530;28;20451;-72
2023/03/10 06:13:40;;;;;;;58.33;21.23;;;0.40;99.90;;;;;;5060627;28;20116;-71
2023/03/10 06:16:06;;;;;;;64.28;26.00;;;0.40;99.90;;;;;;5063003;28;20116;-70
2023/03/10 06:18:33;;;;;;;61.60;23.38;;;0.40;99.90;;;;;;5063647;28;20047;-72
2023/03/10 06:21:02;;;;;;;57.22;21.92;;;0.40;99.90;;;;;;5062957;28;20154;-72
2023/03/10 06:23:28;;;;;;;63.63;23.38;;;0.40;99.90;;;;;;5066162;28;20047;-72
2023/03/10 06:26:00;;;;;;;57.97;22.77;;;0.40;99.90;;;;;;5070100;28;20033;-72
2023/03/10 06:28:31;;;;;;;61.13;23.17;;;0.30;99.90;;;;;;5063999;28;20044;-73
2023/03/10 06:30:58;;;;;;;58.53;22.40;;;0.30;99.90;;;;;;5068451;28;20260;-74
2023/03/10 06:33:25;;;;;;;56.03;20.63;;;0.60;99.90;;;;;;5067708;28;20070;-72
2023/03/10 06:35:51;;;;;;;48.42;20.08;;;0.30;99.90;;;;;;5057910;28;20456;-73
2023/03/10 06:38:17;;;;;;;58.92;21.42;;;0.30;99.90;;;;;;5068830;28;20041;-73
2023/03/10 06:40:43;;;;;;;49.55;20.17;;;0.30;99.90;;;;;;5058632;28;20041;-72
2023/03/10 06:43:08;;;;;;;54.17;20.50;;;0.20;99.90;;;;;;5059892;28;20480;-73
2023/03/10 06:45:34;;;;;;;52.55;18.38;;;0.30;99.90;;;;;;5066130;28;20063;-73
2023/03/10 06:48:00;;;;;;;58.63;21.52;;;0.20;99.90;;;;;;5069163;28;20090;-73
2023/03/10 06:50:26;;;;;;;47.13;19.05;;;0.20;99.90;;;;;;5068538;28;20061;-71
2023/03/10 06:52:51;;;;;;;51.75;21.33;;;0.30;99.90;;;;;;5071062;28;20036;-72
2023/03/10 06:55:17;;;;;;;64.13;23.95;;;0.30;99.90;;;;;;5081859;28;20086;-72
2023/03/10 06:57:43;;;;;;;58.05;22.48;;;0.30;99.90;;;;;;5070601;28;20178;-71
2023/03/10 07:00:10;;;;;;;56.30;21.48;;;0.30;99.90;;;;;;5068942;28;20039;-72
2023/03/10 07:02:39;;;;;;;57.80;20.90;;;0.30;99.90;;;;;;5066149;28;20044;-72
2023/03/10 07:05:06;;;;;;;55.38;21.30;;;0.30;99.90;;;;;;5068877;28;20041;-73
2023/03/10 07:07:32;;;;;;;63.08;21.90;;;0.30;99.90;;;;;;5066421;28;20044;-73
2023/03/10 07:09:58;;;;;;;67.93;23.40;;;0.30;99.90;;;;;;5072657;28;20040;-72
2023/03/10 07:12:23;;;;;;;59.88;23.02;;;0.30;99.90;;;;;;5067103;28;20131;-73
2023/03/10 07:14:50;;;;;;;65.13;23.50;;;0.30;99.90;;;;;;5060477;28;20049;-73
2023/03/10 07:17:16;;;;;;;70.10;24.85;;;0.30;99.90;;;;;;5070974;28;20108;-73
2023/03/10 07:19:41;;;;;;;69.25;26.80;;;0.30;99.90;;;;;;5074760;28;20075;-73
2023/03/10 07:22:07;;;;;;;76.25;27.27;;;0.30;99.90;;;;;;5074154;28;20063;-74
2023/03/10 07:24:32;;;;;;;77.50;27.13;;;0.30;99.90;;;;;;5071181;28;20045;-73
2023/03/10 07:26:59;;;;;;;73.47;27.88;;;0.30;99.90;;;;;;5071648;28;20094;-73
2023/03/10 07:29:24;;;;;;;79.25;28.90;;;0.30;99.90;;;;;;5075107;28;20063;-73
2023/03/10 07:31:50;;;;;;;66.93;26.55;;;0.40;99.90;;;;;;5073514;28;20045;-73
2023/03/10 07:34:16;;;;;;;68.88;25.08;;;0.30;99.90;;;;;;5072651;28;20432;-74
2023/03/10 07:36:41;;;;;;;74.18;26.38;;;0.40;99.90;;;;;;5073401;28;20036;-75
2023/03/10 07:39:07;;;;;;;67.32;24.55;;;0.40;99.90;;;;;;5063991;28;20032;-74
2023/03/10 07:41:33;;;;;;;57.50;23.23;;;0.50;99.90;;;;;;5075622;28;20085;-74
2023/03/10 07:43:58;;;;;;;63.10;24.00;;;0.80;99.90;;;;;;5057126;28;20041;-74
2023/03/10 07:46:24;;;;;;;60.65;23.63;;;0.50;99.90;;;;;;5055700;28;20155;-73
2023/03/10 07:48:51;;;;;;;67.35;25.83;;;0.50;99.90;;;;;;5056840;28;20529;-74
2023/03/10 07:51:17;;;;;;;60.88;23.98;;;0.50;99.90;;;;;;5074604;28;20140;-74
2023/03/10 07:53:43;;;;;;;57.97;22.55;;;0.50;99.90;;;;;;5074970;28;20079;-74
2023/03/10 07:56:11;;;;;;;49.47;21.08;;;0.60;99.90;;;;;;5056169;28;20048;-74
2023/03/10 07:58:37;;;;;;;61.05;23.30;;;0.50;99.90;;;;;;5057563;28;20052;-74
2023/03/10 08:01:04;;;;;;;55.40;22.38;;;0.50;99.90;;;;;;5062606;28;20452;-74
2023/03/10 08:03:30;;;;;;;57.33;24.20;;;0.50;99.90;;;;;;5074181;28;20060;-73
2023/03/10 08:06:01;;;;;;;60.45;23.73;;;0.50;99.90;;;;;;5068523;28;20517;-73
2023/03/10 08:08:26;;;;;;;45.17;19.63;;;0.50;99.90;;;;;;5068568;28;20055;-72
2023/03/10 08:11:04;;;;;;;57.53;24.65;;;0.50;99.90;;;;;;5070964;28;20036;-73
2023/03/10 08:13:30;;;;;;;57.95;22.13;;;0.50;99.90;;;;;;5073777;28;20052;-72
2023/03/10 08:16:00;;;;;;;56.75;26.80;;;0.50;99.90;;;;;;5064233;28;20037;-72
2023/03/10 08:18:26;;;;;;;54.30;24.73;;;0.50;99.90;;;;;;5068686;28;20040;-72
2023/03/10 08:20:52;;;;;;;54.47;22.35;;;0.50;99.90;;;;;;5053981;28;20048;-71
2023/03/10 08:23:18;;;;;;;58.42;25.77;;;0.50;99.90;;;;;;5056638;28;20120;-72
2023/03/10 08:25:43;;;;;;;58.97;25.92;;;0.40;99.90;;;;;;5067090;28;20080;-72
2023/03/10 08:28:09;;;;;;;57.42;25.88;;;0.40;99.90;;;;;;5074022;28;20072;-73
2023/03/10 08:30:37;;;;;;;60.67;25.00;;;0.50;99.90;;;;;;5062066;28;20503;-73
2023/03/10 08:33:02;;;;;;;48.70;23.20;;;0.50;99.90;;;;;;5070268;28;20078;-73
2023/03/10 08:35:28;;;;;;;55.88;23.00;;;0.50;99.90;;;;;;5054041;28;20128;-74
2023/03/10 08:37:54;;;;;;;59.53;27.55;;;0.50;99.90;;;;;;5054709;28;20041;-75
2023/03/10 08:40:20;;;;;;;59.13;23.70;;;0.50;99.90;;;;;;5052418;28;20048;-74
2023/03/10 08:42:46;;;;;;;52.92;24.40;;;0.50;99.90;;;;;;5057662;28;20047;-75
2023/03/10 08:45:12;;;;;;;48.95;21.25;;;0.50;99.90;;;;;;5064398;28;20044;-74
2023/03/10 08:47:37;;;;;;;56.80;23.90;;;0.60;99.90;;;;;;5066245;28;20036;-74
2023/03/10 08:50:06;;;;;;;56.47;23.90;;;0.50;99.90;;;;;;5054501;28;20504;-74
2023/03/10 08:52:32;;;;;;;47.15;19.90;;;0.50;99.90;;;;;;5053432;28;20103;-73
2023/03/10 08:54:58;;;;;;;57.55;24.05;;;0.60;99.90;;;;;;5054233;28;20482;-73
2023/03/10 08:57:23;;;;;;;58.20;25.35;;;0.60;99.90;;;;;;5065287;28;20053;-75
2023/03/10 08:59:50;;;;;;;59.20;24.92;;;0.60;99.90;;;;;;5063386;28;20079;-74
2023/03/10 09:02:16;;;;;;;63.75;24.73;;;0.60;99.90;;;;;;5054354;28;20040;-74
2023/03/10 09:04:42;;;;;;;52.65;23.60;;;0.60;99.90;;;;;;5061756;28;20040;-73
2023/03/10 09:07:09;;;;;;;55.90;23.60;;;0.60;99.90;;;;;;5073321;28;20045;-71
2023/03/10 09:09:35;;;;;;;55.78;23.30;;;0.60;99.90;;;;;;5074100;28;20043;-71
2023/03/10 09:12:00;;;;;;;54.53;20.98;;;0.60;99.90;;;;;;5072288;28;20040;-72
2023/03/10 09:14:26;;;;;;;62.83;25.35;;;0.60;99.90;;;;;;5073014;28;20044;-73
2023/03/10 09:16:52;;;;;;;42.60;20.20;;;0.60;99.90;;;;;;5072705;28;20393;-73
2023/03/10 09:19:17;;;;;;;56.28;24.10;;;0.80;99.90;;;;;;5074093;28;20051;-72
2023/03/10 09:21:43;;;;;;;59.53;25.27;;;0.60;99.90;;;;;;5067845;28;20397;-74
2023/03/10 09:24:09;;;;;;;52.10;22.27;;;0.60;99.90;;;;;;5054353;28;20045;-73
2023/03/10 09:26:35;;;;;;;51.97;22.85;;;0.70;99.90;;;;;;5054379;28;20041;-73
2023/03/10 09:29:01;;;;;;;49.20;23.00;;;0.60;99.90;;;;;;5053279;28;20033;-72
2023/03/10 09:31:33;;;;;;;54.58;23.77;;;0.70;99.90;;;;;;5058006;28;20457;-72
2023/03/10 09:33:59;;;;;;;58.50;24.77;;;0.60;99.90;;;;;;5080402;28;20128;-74
2023/03/10 09:36:25;;;;;;;54.90;22.10;;;0.70;99.90;;;;;;5075265;28;20040;-74
2023/03/10 09:38:50;;;;;;;54.85;25.63;;;0.70;99.90;;;;;;5072484;28;20093;-73
2023/03/10 09:41:58;;;;;;;46.92;21.60;;;0.70;99.90;;;;;;5072353;28;20350;-73
2023/03/10 09:45:02;;;;;;;49.30;22.40;;;0.60;99.90;;;;;;5072710;28;20107;-73
2023/03/10 09:47:58;;;;;;;54.35;22.45;;;0.60;99.90;;;;;;5052601;28;20040;-73
2023/03/10 09:50:39;;;;;;;61.88;23.20;;;0.50;99.90;;;;;;5053169;28;20060;-74
2023/03/10 09:53:30;;;;;;;52.85;23.08;;;0.50;99.90;;;;;;5052893;28;20053;-73
2023/03/10 09:55:56;;;;;;;54.63;23.10;;;0.60;99.90;;;;;;5060439;28;20043;-73
2023/03/10 09:58:34;;;;;;;50.00;20.73;;;0.70;99.90;;;;;;5071782;28;20068;-74
2023/03/10 10:01:00;;;;;;;52.97;24.52;;;0.70;99.90;;;;;;5073158;28;20052;-73
2023/03/10 10:03:50;;;;;;;50.63;22.33;;;0.70;99.90;;;;;;5060584;28;20079;-73
2023/03/10 10:06:21;;;;;;;54.08;22.48;;;0.70;99.90;;;;;;5060875;28;20529;-73
2023/03/10 10:08:55;;;;;;;43.22;20.52;;;0.70;99.90;;;;;;5053201;28;20432;-72
2023/03/10 10:11:20;;;;;;;37.20;16.30;;;0.70;99.90;;;;;;5068730;28;20052;-73
2023/03/10 10:13:46;;;;;;;41.75;19.05;;;0.70;99.90;;;;;;5071187;28;20037;-72
2023/03/10 10:16:59;;;;;;;43.17;20.08;;;0.80;99.90;;;;;;5072460;28;20131;-72
2023/03/10 10:19:27;;;;;;;48.72;21.75;;;0.70;99.90;;;;;;5047762;28;20429;-73
2023/03/10 10:22:02;;;;;;;36.97;16.10;;;0.70;99.90;;;;;;5072344;28;20114;-73
2023/03/10 10:24:28;;;;;;;52.05;21.65;;;0.80;99.90;;;;;;5063942;28;20057;-72
2023/03/10 10:26:54;;;;;;;44.55;21.35;;;0.70;99.90;;;;;;5075416;28;20040;-72
2023/03/10 10:29:46;;;;;;;51.58;20.48;;;0.70;99.90;;;;;;5077061;28;20048;-76
2023/03/10 10:32:16;;;;;;;50.22;21.50;;;0.70;99.90;;;;;;5076504;28;20060;-73
2023/03/10 10:34:48;;;;;;;46.42;21.17;;;0.70;99.90;;;;;;5073510;28;20049;-73
2023/03/10 10:37:25;;;;;;;43.75;21.45;;;0.80;99.90;;;;;;5076642;28;20097;-73
2023/03/10 10:39:53;;;;;;;54.47;22.35;;;0.80;99.90;;;;;;5075390;28;20059;-73
2023/03/10 10:42:23;;;;;;;48.37;25.00;;;0.70;99.90;;;;;;5078155;28;20094;-73
2023/03/10 10:44:52;;;;;;;50.88;21.42;;;0.70;99.90;;;;;;5067914;28;20041;-73
2023/03/10 10:47:27;;;;;;;47.03;21.33;;;0.60;99.90;;;;;;5072140;28;20040;-73
2023/03/10 10:49:55;;;;;;;42.50;20.75;;;0.70;99.90;;;;;;5058074;28;20075;-73
2023/03/10 10:52:23;;;;;;;41.67;18.30;;;0.60;99.90;;;;;;5065144;28;20123;-72
2023/03/10 10:55:01;;;;;;;48.47;20.92;;;0.70;99.90;;;;;;5080483;28;20146;-72
2023/03/10 10:57:35;;;;;;;46.60;22.92;;;0.70;99.90;;;;;;5077618;28;20044;-73
2023/03/10 11:00:25;;;;;;;43.25;20.52;;;0.70;99.90;;;;;;5079538;28;20053;-71
2023/03/10 11:02:51;;;;;;;51.15;20.90;;;0.80;99.90;;;;;;5081505;28;20087;-73
2023/03/10 11:05:19;;;;;;;42.35;18.58;;;0.80;99.90;;;;;;5066264;28;20047;-72
2023/03/10 11:07:45;;;;;;;47.30;22.55;;;0.80;99.90;;;;;;5068014;28;20056;-74
2023/03/10 11:10:22;;;;;;;46.67;21.45;;;0.80;99.90;;;;;;5064933;28;20040;-74
2023/03/10 11:13:12;;;;;;;45.88;23.05;;;0.80;99.90;;;;;;5069096;28;20072;-74
2023/03/10 11:16:04;;;;;;;37.83;17.85;;;0.80;99.90;;;;;;5074450;28;20040;-74
2023/03/10 11:18:38;;;;;;;50.55;22.85;;;0.80;99.90;;;;;;5057366;28;20383;-74
2023/03/10 11:21:19;;;;;;;50.63;21.73;;;0.80;99.90;;;;;;5070033;28;20045;-73
2023/03/10 11:23:53;;;;;;;48.80;22.08;;;0.80;99.90;;;;;;5075083;28;20041;-75
2023/03/10 11:26:27;;;;;;;46.75;21.10;;;0.80;99.90;;;;;;5075418;28;20067;-73
2023/03/10 11:29:03;;;;;;;51.70;21.52;;;0.90;99.90;;;;;;5054539;28;20401;-74
2023/03/10 11:31:57;;;;;;;48.67;19.98;;;0.90;99.90;;;;;;5054722;28;20208;-73
2023/03/10 11:34:32;;;;;;;45.40;22.75;;;0.90;99.90;;;;;;5071183;28;20094;-73
2023/03/10 11:37:23;;;;;;;40.17;20.30;;;0.80;99.90;;;;;;5071799;28;20413;-73
2023/03/10 11:40:20;;;;;;;46.22;21.95;;;0.90;99.90;;;;;;5057168;28;20051;-73
2023/03/10 11:42:49;;;;;;;46.30;20.85;;;0.90;99.90;;;;;;5061392;28;20044;-73
2023/03/10 11:45:37;;;;;;;46.80;20.70;;;0.90;99.90;;;;;;5067957;28;20128;-73
2023/03/10 11:48:18;;;;;;;44.72;22.27;;;0.90;99.90;;;;;;5070440;28;20075;-73
2023/03/10 11:51:01;;;;;;;44.85;18.73;;;0.90;99.90;;;;;;5074221;28;20053;-72
2023/03/10 11:53:48;;;;;;;47.38;21.63;;;0.90;99.90;;;;;;5074124;28;20397;-73
2023/03/10 11:56:17;;;;;;;35.53;16.77;;;0.90;99.90;;;;;;5070397;28;20036;-73
2023/03/10 11:58:53;;;;;;;49.75;21.90;;;1.90;99.90;;;;;;5055686;28;20080;-73
2023/03/10 12:01:43;;;;;;;44.65;23.00;;;0.90;99.90;;;;;;5062458;28;20098;-72
2023/03/10 12:04:15;;;;;;;46.20;21.80;;;0.90;99.90;;;;;;5055374;28;20053;-73
2023/03/10 12:06:52;;;;;;;49.65;23.35;;;0.50;99.90;;;;;;5060719;28;20105;-72
2023/03/10 12:09:42;;;;;;;45.58;20.20;;;0.80;99.90;;;;;;5073819;28;20044;-73
2023/03/10 12:12:15;;;;;;;51.50;23.48;;;0.80;99.90;;;;;;5073022;28;20072;-73
2023/03/10 12:14:42;;;;;;;52.60;22.23;;;0.80;99.90;;;;;;5058804;28;20033;-72
2023/03/10 12:17:12;;;;;;;47.08;20.92;;;0.80;99.90;;;;;;5073860;28;20047;-73
2023/03/10 12:20:13;;;;;;;44.67;20.38;;;0.80;99.90;;;;;;5072440;28;20425;-73
2023/03/10 12:22:42;;;;;;;47.63;21.25;;;0.90;99.90;;;;;;5072767;28;20052;-73
2023/03/10 12:25:26;;;;;;;50.15;21.67;;;0.90;99.90;;;;;;5072951;28;20123;-73
2023/03/10 12:28:23;;;;;;;45.92;19.88;;;0.80;99.90;;;;;;5073314;28;20045;-73
2023/03/10 12:31:06;;;;;;;43.85;19.48;;;0.80;99.90;;;;;;5059565;28;20545;-72
2023/03/10 12:33:40;;;;;;;45.78;22.25;;;0.90;99.90;;;;;;5050389;28;20461;-73
2023/03/10 12:36:31;;;;;;;50.30;21.20;;;0.80;99.90;;;;;;5050798;28;20498;-73
2023/03/10 12:39:30;;;;;;;51.13;20.85;;;0.80;99.90;;;;;;5059776;28;20086;-72
2023/03/10 12:41:57;;;;;;;52.00;23.30;;;0.80;99.90;;;;;;5059324;28;20045;-72
2023/03/10 12:44:32;;;;;;;54.28;22.25;;;0.80;99.90;;;;;;5073053;28;20051;-72
2023/03/10 12:47:14;;;;;;;45.75;21.50;;;0.70;99.90;;;;;;5071696;28;20155;-72
2023/03/10 12:49:40;;;;;;;54.75;23.02;;;0.70;99.90;;;;;;5067089;28;20067;-72
2023/03/10 12:52:13;;;;;;;49.13;20.83;;;0.70;99.90;;;;;;5052864;28;20057;-73